createdAt,value
2023-02-11T00:01:30.763Z,99770.78
2023-02-11T00:04:07.201Z,99767.75
2023-02-11T00:06:36.552Z,99763.90
2023-02-11T00:09:06.325Z,99769.89
2023-02-11T00:11:35.044Z,99771.02
2023-02-11T00:14:10.402Z,99771.27
2023-02-11T00:16:39.243Z,99766.58
2023-02-11T00:19:18.086Z,99770.80
2023-02-11T00:21:46.614Z,99770.67
2023-02-11T00:24:15.060Z,99771.63
2023-02-11T00:26:45.239Z,99770.85
2023-02-11T00:29:13.838Z,99770.05
2023-02-11T00:31:42.325Z,99764.83
2023-02-11T00:34:11.520Z,99766.27
2023-02-11T00:36:40.296Z,99765.98
2023-02-11T00:39:09.612Z,99766.04
2023-02-11T00:41:38.306Z,99765.72
2023-02-11T00:44:06.844Z,99765.88
2023-02-11T00:46:35.490Z,99764.91
2023-02-11T00:49:12.223Z,99760.34
2023-02-11T00:51:41.652Z,99760.17
2023-02-11T00:54:10.118Z,99764.36
2023-02-11T00:56:40.941Z,99762.59
2023-02-11T00:59:09.546Z,99756.02
2023-02-11T01:01:38.330Z,99756.06
2023-02-11T01:04:06.914Z,99752.71
2023-02-11T01:06:36.704Z,99748.15
2023-02-11T01:09:18.087Z,99743.48
2023-02-11T01:11:54.456Z,99741.02
2023-02-11T01:14:22.788Z,99733.43
2023-02-11T01:16:52.220Z,99732.94
2023-02-11T01:19:21.998Z,99725.39
2023-02-11T01:21:50.667Z,99724.17
2023-02-11T01:24:23.869Z,99721.85
2023-02-11T01:26:52.609Z,99717.92
2023-02-11T01:29:21.188Z,99713.52
2023-02-11T01:31:49.802Z,99716.38
2023-02-11T01:34:27.519Z,99710.70
2023-02-11T01:37:00.362Z,99707.63
2023-02-11T01:39:34.566Z,99700.99
2023-02-11T01:42:18.096Z,99703.21
2023-02-11T01:44:49.645Z,99698.85
2023-02-11T01:47:19.463Z,99702.57
2023-02-11T01:50:00.470Z,99702.36
2023-02-11T01:52:35.741Z,99701.37
2023-02-11T01:55:35.786Z,99697.07
2023-02-11T01:58:06.459Z,99688.95
2023-02-11T02:00:38.796Z,99690.09
2023-02-11T02:03:31.378Z,99692.91
2023-02-11T02:06:16.331Z,99695.28
2023-02-11T02:09:09.405Z,99688.69
2023-02-11T02:11:48.113Z,99686.34
2023-02-11T02:14:16.827Z,99685.79
2023-02-11T02:16:47.309Z,99676.57
2023-02-11T02:19:40.586Z,99671.83
2023-02-11T02:22:43.483Z,99669.27
2023-02-11T02:25:51.110Z,99667.48
2023-02-11T02:28:28.969Z,99667.30
2023-02-11T02:31:29.088Z,99660.80
2023-02-11T02:34:17.383Z,99661.39
2023-02-11T02:37:11.007Z,99661.11
2023-02-11T02:39:50.533Z,99659.04
2023-02-11T02:42:21.599Z,99654.33
2023-02-11T02:44:52.372Z,99651.27
2023-02-11T02:47:32.111Z,99647.95
2023-02-11T02:50:01.158Z,99649.52
2023-02-11T02:52:37.103Z,99652.41
2023-02-11T02:55:34.765Z,99647.83
2023-02-11T02:58:46.766Z,99649.94
2023-02-11T03:02:00.629Z,99651.86
2023-02-11T03:04:29.058Z,99652.05
2023-02-11T03:07:39.555Z,99648.06
2023-02-11T03:10:13.670Z,99643.05
2023-02-11T03:12:51.723Z,99645.59
2023-02-11T03:15:24.849Z,99647.25
2023-02-11T03:17:56.747Z,99644.41
2023-02-11T03:20:27.688Z,99649.48
2023-02-11T03:23:12.979Z,99651.75
2023-02-11T03:25:59.979Z,99650.23
2023-02-11T03:29:11.062Z,99655.13
2023-02-11T03:32:20.136Z,99653.55
2023-02-11T03:35:04.419Z,99644.34
2023-02-11T03:37:43.570Z,99642.14
2023-02-11T03:40:27.115Z,99644.23
2023-02-11T03:43:09.422Z,99643.95
2023-02-11T03:45:39.845Z,99644.63
2023-02-11T03:48:48.234Z,99644.35
2023-02-11T03:51:18.527Z,99643.68
2023-02-11T03:53:48.600Z,99644.47
2023-02-11T03:56:31.626Z,99642.60
2023-02-11T03:59:00.627Z,99639.16
2023-02-11T04:01:29.141Z,99632.41
2023-02-11T04:03:58.078Z,99634.00
2023-02-11T04:06:26.765Z,99631.48
2023-02-11T04:09:06.530Z,99625.52
2023-02-11T04:11:35.219Z,99622.70
2023-02-11T04:14:03.994Z,99623.45
2023-02-11T04:16:33.440Z,99623.92
2023-02-11T04:19:02.122Z,99618.61
2023-02-11T04:21:41.127Z,99622.85
2023-02-11T04:24:09.689Z,99620.50
2023-02-11T04:26:38.206Z,99617.67
2023-02-11T04:29:06.967Z,99613.29
2023-02-11T04:31:35.254Z,99613.41
2023-02-11T04:34:03.743Z,99608.39
2023-02-11T04:36:32.199Z,99613.00
2023-02-11T04:39:01.897Z,99612.52
2023-02-11T04:41:30.419Z,99605.39
2023-02-11T04:43:59.508Z,99605.30
2023-02-11T04:46:28.857Z,99608.90
2023-02-11T04:48:58.466Z,99606.19
2023-02-11T04:51:27.012Z,99602.95
2023-02-11T04:53:55.913Z,99597.68
2023-02-11T04:56:32.432Z,99597.70
2023-02-11T04:59:01.623Z,99599.92
2023-02-11T05:01:30.434Z,99595.16
2023-02-11T05:04:00.055Z,99598.59
2023-02-11T05:06:28.750Z,99601.86
2023-02-11T05:08:57.483Z,99599.24
2023-02-11T05:11:26.536Z,99607.47
2023-02-11T05:13:55.020Z,99612.33
2023-02-11T05:16:24.147Z,99616.83
2023-02-11T05:19:17.755Z,99621.20
2023-02-11T05:22:02.587Z,99622.20
2023-02-11T05:24:32.423Z,99620.88
2023-02-11T05:27:02.137Z,99618.13
2023-02-11T05:29:40.707Z,99619.63
2023-02-11T05:32:09.299Z,99622.02
2023-02-11T05:34:37.869Z,99617.81
2023-02-11T05:37:06.605Z,99610.33
2023-02-11T05:39:35.189Z,99610.89
2023-02-11T05:42:05.172Z,99611.27
2023-02-11T05:44:33.908Z,99608.45
2023-02-11T05:47:02.380Z,99606.99
2023-02-11T05:49:31.816Z,99605.25
2023-02-11T05:52:00.392Z,99603.75
2023-02-11T05:54:29.066Z,99602.70
2023-02-11T05:56:58.777Z,99605.55
2023-02-11T05:59:27.364Z,99599.47
2023-02-11T06:01:55.914Z,99597.60
2023-02-11T06:04:24.833Z,99600.38
2023-02-11T06:06:53.282Z,99601.34
2023-02-11T06:09:21.719Z,99595.63
2023-02-11T06:11:50.729Z,99597.13
2023-02-11T06:14:19.818Z,99591.92
2023-02-11T06:16:48.340Z,99596.19
2023-02-11T06:19:16.825Z,99596.22
2023-02-11T06:21:45.427Z,99600.26
2023-02-11T06:24:13.992Z,99605.44
2023-02-11T06:26:42.464Z,99604.41
2023-02-11T06:29:11.008Z,99604.73
2023-02-11T06:31:40.462Z,99606.13
2023-02-11T06:34:09.890Z,99607.95
2023-02-11T06:36:44.112Z,99606.31
2023-02-11T06:39:14.998Z,99606.53
2023-02-11T06:41:52.912Z,99612.42
2023-02-11T06:44:22.214Z,99607.27
2023-02-11T06:46:50.786Z,99608.56
2023-02-11T06:49:20.089Z,99606.63
2023-02-11T06:51:48.646Z,99604.33
2023-02-11T06:54:17.479Z,99607.40
2023-02-11T06:56:46.179Z,99612.27
2023-02-11T06:59:34.512Z,99610.33
2023-02-11T07:02:05.265Z,99608.35
2023-02-11T07:04:33.927Z,99606.63
2023-02-11T07:07:02.358Z,99602.98
2023-02-11T07:09:30.942Z,99613.40
2023-02-11T07:12:12.373Z,99610.35
2023-02-11T07:14:48.040Z,99612.01
2023-02-11T07:17:27.763Z,99616.70
2023-02-11T07:19:57.281Z,99619.81
2023-02-11T07:22:28.367Z,99614.85
2023-02-11T07:24:56.932Z,99612.69
2023-02-11T07:27:25.610Z,99617.63
2023-02-11T07:29:55.194Z,99622.73
2023-02-11T07:32:23.888Z,99625.73
2023-02-11T07:34:52.618Z,99622.56
2023-02-11T07:37:21.147Z,99627.18
2023-02-11T07:40:00.161Z,99627.48
2023-02-11T07:42:29.526Z,99623.73
2023-02-11T07:44:57.945Z,99617.55
2023-02-11T07:47:26.517Z,99619.55
2023-02-11T07:49:56.776Z,99616.70
2023-02-11T07:52:25.377Z,99618.36
2023-02-11T07:54:53.928Z,99623.13
2023-02-11T07:57:22.564Z,99622.59
2023-02-11T07:59:51.302Z,99618.17
2023-02-11T08:02:20.743Z,99612.77
2023-02-11T08:04:49.368Z,99609.40
2023-02-11T08:07:18.895Z,99604.79
2023-02-11T08:09:47.619Z,99604.64
2023-02-11T08:12:15.968Z,99599.21
2023-02-11T08:14:45.164Z,99595.48
2023-02-11T08:17:13.586Z,99587.67
2023-02-11T08:19:42.224Z,99583.86
2023-02-11T08:22:10.616Z,99576.20
2023-02-11T08:24:39.016Z,99569.59
2023-02-11T08:27:07.415Z,99566.64
2023-02-11T08:29:36.270Z,99565.08
2023-02-11T08:32:05.478Z,99564.91
2023-02-11T08:34:42.825Z,99566.86
2023-02-11T08:37:11.315Z,99559.73
2023-02-11T08:39:39.677Z,99551.11
2023-02-11T08:42:08.172Z,99554.09
2023-02-11T08:44:36.553Z,99553.47
2023-02-11T08:47:05.329Z,99556.80
2023-02-11T08:49:34.232Z,99558.65
2023-02-11T08:52:04.356Z,99554.28
2023-02-11T08:54:32.835Z,99547.63
2023-02-11T08:57:02.112Z,99543.17
2023-02-11T08:59:30.871Z,99538.21
2023-02-11T09:01:59.269Z,99549.25
2023-02-11T09:04:27.791Z,99547.07
2023-02-11T09:06:56.162Z,99537.77
2023-02-11T09:09:24.538Z,99531.06
2023-02-11T09:12:01.583Z,99521.59
2023-02-11T09:14:30.037Z,99514.99
2023-02-11T09:16:58.343Z,99523.00
2023-02-11T09:19:26.962Z,99521.48
2023-02-11T09:21:55.447Z,99519.65
2023-02-11T09:24:24.639Z,99521.39
2023-02-11T09:26:53.049Z,99522.34
2023-02-11T09:29:21.437Z,99520.77
2023-02-11T09:31:50.541Z,99514.81
2023-02-11T09:34:19.212Z,99513.85
2023-02-11T09:36:48.068Z,99514.90
2023-02-11T09:39:19.840Z,99511.89
2023-02-11T09:41:54.473Z,99512.71
2023-02-11T09:44:29.662Z,99510.17
2023-02-11T09:47:21.338Z,99500.24
2023-02-11T09:49:55.155Z,99494.77
2023-02-11T09:52:41.945Z,99492.76
2023-02-11T09:55:40.136Z,99495.33
2023-02-11T09:58:12.874Z,99491.73
2023-02-11T10:00:45.108Z,99487.44
2023-02-11T10:03:32.082Z,99486.73
2023-02-11T10:06:43.727Z,99485.84
2023-02-11T10:10:13.653Z,99481.05
2023-02-11T10:13:20.200Z,99474.52
2023-02-11T10:16:00.574Z,99467.35
2023-02-11T10:18:55.093Z,99468.67
2023-02-11T10:21:45.116Z,99460.92
2023-02-11T10:24:41.398Z,99458.33
2023-02-11T10:29:25.017Z,99460.84
2023-02-11T10:38:29.217Z,99456.17
2023-02-11T10:41:29.267Z,99453.79
2023-02-11T10:45:04.144Z,99443.98
2023-02-11T10:47:53.002Z,99436.50
2023-02-11T10:50:41.275Z,99428.14
2023-02-11T10:53:21.613Z,99419.54
2023-02-11T10:55:59.918Z,99415.80
2023-02-11T10:58:59.212Z,99412.36
2023-02-11T11:01:47.728Z,99408.16
2023-02-11T11:04:37.491Z,99398.27
2023-02-11T11:07:24.460Z,99391.80
2023-02-11T11:11:37.455Z,99375.91
2023-02-11T11:14:49.399Z,99373.49
2023-02-11T11:28:34.828Z,99343.44
2023-02-11T11:50:18.511Z,99306.29
2023-02-11T11:57:54.534Z,99304.43
2023-02-11T12:01:49.429Z,99300.75
2023-02-11T12:04:45.995Z,99298.75
2023-02-11T12:07:35.492Z,99295.51
2023-02-11T12:10:48.983Z,99286.67
2023-02-11T12:14:24.578Z,99285.31
2023-02-11T12:17:22.993Z,99280.53
2023-02-11T12:20:37.520Z,99271.76
2023-02-11T12:24:31.639Z,99264.43
2023-02-11T12:27:43.112Z,99263.16
2023-02-11T12:32:29.434Z,99262.14
2023-02-11T12:36:22.919Z,99258.61
2023-02-11T12:43:44.759Z,99259.67
2023-02-11T12:47:48.725Z,99258.50
2023-02-11T12:51:47.710Z,99252.38
2023-02-11T13:41:58.321Z,99185.48
2023-02-11T13:59:50.638Z,99173.59
2023-02-11T14:02:56.205Z,99176.04
2023-02-11T14:06:59.801Z,99180.15
2023-02-11T14:11:16.172Z,99166.90
2023-02-11T14:29:46.659Z,99134.39
2023-02-11T14:33:35.067Z,99134.52
2023-02-11T14:37:32.986Z,99124.79
2023-02-11T14:40:35.936Z,99120.90
2023-02-11T14:43:59.931Z,99119.17
2023-02-11T14:52:00.589Z,99131.64
2023-02-11T14:58:37.897Z,99124.77
2023-02-11T15:01:32.623Z,99127.78
2023-02-11T15:05:30.379Z,99128.85
2023-02-11T15:09:12.201Z,99132.32
2023-02-11T15:15:41.535Z,99132.58
2023-02-11T15:18:45.427Z,99129.88
2023-02-11T15:21:50.654Z,99126.63
2023-02-11T15:25:08.952Z,99130.75
2023-02-11T15:32:11.915Z,99122.30
2023-02-11T15:35:03.622Z,99118.45
2023-02-11T15:37:45.079Z,99112.70
2023-02-11T15:41:01.535Z,99107.67
2023-02-11T15:44:42.608Z,99099.17
2023-02-11T15:51:05.726Z,99087.02
2023-02-11T15:54:56.724Z,99082.83
2023-02-11T15:57:27.604Z,99088.77
2023-02-11T16:03:44.347Z,99081.80
2023-02-11T16:07:17.187Z,99073.13
2023-02-11T16:11:10.640Z,99071.48
2023-02-11T16:16:51.754Z,99061.63
2023-02-11T16:19:35.299Z,99062.30
2023-02-11T16:22:43.896Z,99061.31
2023-02-11T16:25:59.732Z,99061.78
2023-02-11T16:32:22.823Z,99066.25
2023-02-11T16:38:33.903Z,99073.12
2023-02-11T16:41:23.732Z,99074.77
2023-02-11T16:43:57.017Z,99072.34
2023-02-11T16:46:45.868Z,99074.59
2023-02-11T16:49:50.035Z,99073.33
2023-02-11T16:53:01.260Z,99074.29
2023-02-11T16:55:39.798Z,99069.34
2023-02-11T16:58:08.689Z,99064.77
2023-02-11T17:00:37.647Z,99063.56
2023-02-11T17:03:27.457Z,99059.95
2023-02-11T17:05:57.428Z,99060.42
2023-02-11T17:08:25.817Z,99068.66
2023-02-11T17:10:54.490Z,99077.04
2023-02-11T17:13:23.000Z,99075.84
2023-02-11T17:15:51.882Z,99072.10
2023-02-11T17:18:20.418Z,99063.85
2023-02-11T17:20:50.865Z,99063.48
2023-02-11T17:23:19.612Z,99059.02
2023-02-11T17:25:55.430Z,99059.85
2023-02-11T17:28:24.690Z,99048.40
2023-02-11T17:30:53.105Z,99038.79
2023-02-11T17:33:22.140Z,99023.09
2023-02-11T17:35:50.903Z,99008.70
2023-02-11T17:38:19.678Z,99000.92
2023-02-11T17:40:58.052Z,99003.86
2023-02-11T17:43:26.866Z,99018.50
2023-02-11T17:45:55.295Z,99024.89
2023-02-11T17:52:34.580Z,99037.51
2023-02-11T17:55:11.814Z,99043.36
2023-02-11T17:57:42.219Z,99050.06
2023-02-11T18:00:12.241Z,99049.08
2023-02-11T18:02:43.484Z,99043.48
2023-02-11T18:05:15.362Z,99048.61
2023-02-11T18:07:52.436Z,99053.59
2023-02-11T18:10:53.860Z,99052.74
2023-02-11T18:13:38.659Z,99054.66
2023-02-11T18:16:19.385Z,99056.65
2023-02-11T18:18:51.081Z,99060.54
2023-02-11T18:22:00.556Z,99059.96
2023-02-11T18:25:40.956Z,99054.17
2023-02-11T18:31:35.713Z,99046.79
2023-02-11T18:34:18.290Z,99049.75
2023-02-11T18:36:48.667Z,99053.63
2023-02-11T18:39:19.661Z,99047.91
2023-02-11T18:41:48.598Z,99046.63
2023-02-11T18:44:34.533Z,99049.41
2023-02-11T18:47:24.069Z,99048.55
2023-02-11T18:50:05.951Z,99048.91
2023-02-11T18:53:07.946Z,99050.70
2023-02-11T18:55:56.844Z,99056.33
2023-02-11T19:03:17.955Z,99037.92
2023-02-11T19:09:29.032Z,99041.88
2023-02-11T19:11:59.205Z,99042.05
2023-02-11T19:14:36.113Z,99043.08
2023-02-11T19:17:14.662Z,99049.17
2023-02-11T19:19:51.992Z,99048.30
2023-02-11T19:22:42.063Z,99050.14
2023-02-11T19:25:12.364Z,99045.89
2023-02-11T19:27:46.559Z,99039.19
2023-02-11T19:36:38.614Z,99039.19
2023-02-11T22:02:41.325Z,98939.12
2023-02-11T22:05:12.844Z,98940.50
2023-02-11T22:07:45.064Z,98933.04
2023-02-11T22:10:14.435Z,98935.40
2023-02-11T22:12:51.738Z,98941.19
2023-02-11T22:15:21.667Z,98945.60
2023-02-11T22:18:10.578Z,98946.02
2023-02-11T22:20:43.841Z,98944.06
2023-02-11T22:23:13.850Z,98944.02
2023-02-11T22:25:42.414Z,98947.23
2023-02-11T22:28:12.008Z,98951.05
2023-02-11T22:30:41.370Z,98944.60
2023-02-11T22:33:17.986Z,98934.64
2023-02-11T22:35:46.598Z,98937.15
2023-02-11T22:38:15.187Z,98942.30
2023-02-11T22:40:45.999Z,98946.34
2023-02-11T22:43:15.168Z,98949.08
2023-02-11T22:45:45.148Z,98948.23
2023-02-11T22:48:15.168Z,98937.73
2023-02-11T22:50:43.651Z,98946.29
2023-02-11T22:53:15.430Z,98945.98
2023-02-11T22:55:44.500Z,98943.03
2023-02-11T22:58:14.899Z,98946.34
2023-02-11T23:00:44.184Z,98948.17
2023-02-11T23:03:13.015Z,98951.23
2023-02-11T23:05:51.620Z,98952.96
2023-02-11T23:08:31.048Z,98952.55
2023-02-11T23:11:14.260Z,98952.44
2023-02-11T23:13:45.175Z,98943.25
2023-02-11T23:16:26.757Z,98940.72
2023-02-11T23:18:55.805Z,98935.95
2023-02-11T23:21:27.963Z,98937.89
2023-02-11T23:24:07.632Z,98936.52
2023-02-11T23:26:40.939Z,98930.95
2023-02-11T23:29:11.013Z,98933.16
2023-02-11T23:31:44.172Z,98934.10
2023-02-11T23:34:25.631Z,98932.36
2023-02-11T23:37:15.208Z,98934.68
2023-02-11T23:39:45.070Z,98934.05
2023-02-11T23:42:15.837Z,98929.86
2023-02-11T23:44:45.971Z,98929.70
2023-02-11T23:47:14.559Z,98928.91
2023-02-11T23:49:52.628Z,98926.66
2023-02-11T23:52:25.144Z,98923.14
2023-02-11T23:54:56.136Z,98923.60
2023-02-11T23:57:25.950Z,98926.39
